Time;durP1;ratioP1;P1;durP2;ratioP2;P2;SDS_P1;SDS_P2;PMS_P1;PMS_P2;Temp;Humidity;BMP_temperature;BMP_pressure;BME280_temperature;BME280_humidity;BME280_pressure;Samples;Min_cycle;Max_cycle;Signal;HPM_P1;HPM_P2
2022/05/31 00:00:50;;;;;;;;;;;;;;;;;;359662;147;855809;-57
2022/05/31 00:01:52;;;;;;;;;;;;;;;;;;358727;147;855802;-57
2022/05/31 00:02:53;;;;;;;;;;;;;;;;;;359989;147;855803;-57
2022/05/31 00:03:54;;;;;;;;;;;;;;;;;;357881;147;855923;-57
2022/05/31 00:04:55;;;;;;;;;;;;;;;;;;361839;147;855813;-57
2022/05/31 00:05:57;;;;;;;;;;;;;;;;;;362025;147;857414;-58
2022/05/31 00:06:58;;;;;;;;;;;;;;;;;;361292;147;856388;-57
2022/05/31 00:07:59;;;;;;;;;;;;;;;;;;357714;147;855715;-57
2022/05/31 00:09:01;;;;;;;;;;;;;;;;;;360163;147;856716;-57
2022/05/31 00:10:02;;;;;;;;;;;;;;;;;;357718;148;855797;-58
2022/05/31 00:11:04;;;;;;;;;;;;;;;;;;359769;147;857287;-58
2022/05/31 00:12:06;;;;;;;;;;;;;;;;;;357063;147;856129;-57
2022/05/31 00:13:07;;;;;;;;;;;;;;;;;;361284;147;855858;-57
2022/05/31 00:14:08;;;;;;;;;;;;;;;;;;358456;148;856372;-58
2022/05/31 00:15:10;;;;;;;;;;;;;;;;;;359380;147;856217;-57
2022/05/31 00:16:11;;;;;;;;;;;;;;;;;;361848;147;855808;-57
2022/05/31 00:17:13;;;;;;;;;;;;;;;;;;362066;147;857571;-57
2022/05/31 00:18:14;;;;;;;;;;;;;;;;;;357468;147;855897;-58
2022/05/31 00:19:15;;;;;;;;;;;;;;;;;;361630;147;856459;-57
2022/05/31 00:20:16;;;;;;;;;;;;;;;;;;358164;147;857374;-58
2022/05/31 00:21:18;;;;;;;;;;;;;;;;;;359988;147;855934;-57
2022/05/31 00:22:19;;;;;;;;;;;;;;;;;;363584;147;856838;-57
2022/05/31 00:23:20;;;;;;;;;;;;;;;;;;360531;148;855099;-57
2022/05/31 00:24:22;;;;;;;;;;;;;;;;;;362264;147;855895;-58
2022/05/31 00:25:23;;;;;;;;;;;;;;;;;;360642;147;855373;-58
2022/05/31 00:26:25;;;;;;;;;;;;;;;;;;357465;148;855956;-57
2022/05/31 00:27:28;;;;;;;;;;;;;;;;;;361376;147;854870;-57
2022/05/31 00:28:29;;;;;;;;;;;;;;;;;;358729;148;855754;-58
2022/05/31 00:29:30;;;;;;;;;;;;;;;;;;361815;147;855050;-58
2022/05/31 00:30:32;;;;;;;;;;;;;;;;;;360716;147;856155;-57
2022/05/31 00:31:33;;;;;;;;;;;;;;;;;;359334;147;856197;-57
2022/05/31 00:32:34;;;;;;;;;;;;;;;;;;360339;147;855833;-57
2022/05/31 00:33:36;;;;;;;;;;;;;;;;;;362072;147;857418;-57
2022/05/31 00:34:37;;;;;;;;;;;;;;;;;;361718;147;855760;-57
2022/05/31 00:35:39;;;;;;;;;;;;;;;;;;362911;147;855773;-56
2022/05/31 00:36:40;;;;;;;;;;;;;;;;;;362267;147;856162;-56
2022/05/31 00:37:42;;;;;;;;;;;;;;;;;;358382;150;855841;-57
2022/05/31 00:38:43;;;;;;;;;;;;;;;;;;359499;147;857565;-55
2022/05/31 00:39:45;;;;;;;;;;;;;;;;;;359271;147;857166;-56
2022/05/31 00:40:46;;;;;;;;;;;;;;;;;;360391;147;855893;-56
2022/05/31 00:41:47;;;;;;;;;;;;;;;;;;360599;147;856180;-58
2022/05/31 00:42:49;;;;;;;;;;;;;;;;;;361001;147;855919;-58
2022/05/31 00:43:50;;;;;;;;;;;;;;;;;;362669;147;857032;-57
2022/05/31 00:44:51;;;;;;;;;;;;;;;;;;361725;147;856334;-57
2022/05/31 00:45:53;;;;;;;;;;;;;;;;;;362030;147;855784;-57
2022/05/31 00:46:54;;;;;;;;;;;;;;;;;;362566;147;856056;-57
2022/05/31 00:47:55;;;;;;;;;;;;;;;;;;361409;147;855780;-59
2022/05/31 00:48:57;;;;;;;;;;;;;;;;;;358803;147;855843;-58
2022/05/31 00:49:58;;;;;;;;;;;;;;;;;;357774;147;855732;-59
2022/05/31 00:51:00;;;;;;;;;;;;;;;;;;361559;147;857508;-59
2022/05/31 00:52:01;;;;;;;;;;;;;;;;;;361979;147;856267;-59
2022/05/31 00:53:02;;;;;;;;;;;;;;;;;;360485;147;855898;-58
2022/05/31 00:54:04;;;;;;;;;;;;;;;;;;361513;147;856703;-57
2022/05/31 00:55:05;;;;;;;;;;;;;;;;;;363656;147;855808;-56
2022/05/31 00:56:06;;;;;;;;;;;;;;;;;;358902;147;856793;-57
2022/05/31 00:57:08;;;;;;;;;;;;;;;;;;358511;147;855844;-57
2022/05/31 00:58:09;;;;;;;;;;;;;;;;;;361977;147;855918;-57
2022/05/31 00:59:10;;;;;;;;;;;;;;;;;;360349;147;856448;-58
2022/05/31 01:00:12;;;;;;;;;;;;;;;;;;363048;147;855789;-57
2022/05/31 01:01:14;;;;;;;;;;;;;;;;;;361359;147;857628;-57
2022/05/31 01:02:17;;;;;;;;;;;;;;;;;;360865;147;855845;-57
2022/05/31 01:03:18;;;;;;;;;;;;;;;;;;361066;147;855877;-57
2022/05/31 01:04:19;;;;;;;;;;;;;;;;;;359368;148;855865;-57
2022/05/31 01:05:21;;;;;;;;;;;;;;;;;;357150;147;857759;-57
2022/05/31 01:06:22;;;;;;;;;;;;;;;;;;358122;147;856060;-57
2022/05/31 01:07:24;;;;;;;;;;;;;;;;;;357473;147;855488;-57
2022/05/31 01:08:25;;;;;;;;;;;;;;;;;;359507;147;856878;-56
2022/05/31 01:09:26;;;;;;;;;;;;;;;;;;359056;147;855723;-57
2022/05/31 01:10:28;;;;;;;;;;;;;;;;;;358236;147;857263;-58
2022/05/31 01:11:29;;;;;;;;;;;;;;;;;;363147;147;855799;-57
2022/05/31 01:12:31;;;;;;;;;;;;;;;;;;362418;147;856041;-57
2022/05/31 01:13:32;;;;;;;;;;;;;;;;;;361294;147;856302;-57
2022/05/31 01:14:34;;;;;;;;;;;;;;;;;;359246;147;855835;-57
2022/05/31 01:15:35;;;;;;;;;;;;;;;;;;359186;148;856054;-57
2022/05/31 01:16:37;;;;;;;;;;;;;;;;;;359808;147;855890;-57
2022/05/31 01:17:39;;;;;;;;;;;;;;;;;;363286;147;855806;-57
2022/05/31 01:18:41;;;;;;;;;;;;;;;;;;362540;147;855925;-58
2022/05/31 01:20:00;;;;;;;;;;;;;;;;;;353191;150;856788;-58
2022/05/31 01:21:02;;;;;;;;;;;;;;;;;;364737;146;856347;-57
2022/05/31 01:22:03;;;;;;;;;;;;;;;;;;363672;146;857121;-57
2022/05/31 01:23:05;;;;;;;;;;;;;;;;;;361991;146;855832;-57
2022/05/31 01:24:07;;;;;;;;;;;;;;;;;;363490;146;856723;-57
2022/05/31 01:25:08;;;;;;;;;;;;;;;;;;361980;146;855807;-57
2022/05/31 01:26:09;;;;;;;;;;;;;;;;;;361129;146;856742;-58
2022/05/31 01:27:11;;;;;;;;;;;;;;;;;;364472;146;855748;-54
2022/05/31 01:28:12;;;;;;;;;;;;;;;;;;364689;146;857550;-57
2022/05/31 01:29:13;;;;;;;;;;;;;;;;;;363979;146;855896;-56
2022/05/31 01:30:15;;;;;;;;;;;;;;;;;;364970;146;855797;-57
2022/05/31 01:31:16;;;;;;;;;;;;;;;;;;362867;146;856462;-57
2022/05/31 01:32:17;;;;;;;;;;;;;;;;;;363652;146;855569;-57
2022/05/31 01:33:18;;;;;;;;;;;;;;;;;;361678;146;857329;-57
2022/05/31 01:34:20;;;;;;;;;;;;;;;;;;354184;150;855476;-57
2022/05/31 01:35:21;;;;;;;;;;;;;;;;;;366120;146;855110;-57
2022/05/31 01:36:23;;;;;;;;;;;;;;;;;;354993;149;855958;-56
2022/05/31 01:37:24;;;;;;;;;;;;;;;;;;355387;150;855221;-56
2022/05/31 01:38:25;;;;;;;;;;;;;;;;;;354839;151;856028;-57
2022/05/31 01:39:26;;;;;;;;;;;;;;;;;;353997;150;855764;-57
2022/05/31 01:40:28;;;;;;;;;;;;;;;;;;353599;152;854908;-57
2022/05/31 01:41:29;;;;;;;;;;;;;;;;;;353603;150;855827;-57
2022/05/31 01:42:30;;;;;;;;;;;;;;;;;;353483;150;857561;-58
2022/05/31 01:43:32;;;;;;;;;;;;;;;;;;354398;150;854967;-57
2022/05/31 01:44:33;;;;;;;;;;;;;;;;;;353048;152;854989;-57
2022/05/31 01:45:34;;;;;;;;;;;;;;;;;;353689;152;856132;-57
2022/05/31 01:46:36;;;;;;;;;;;;;;;;;;353694;150;855757;-56
2022/05/31 01:47:37;;;;;;;;;;;;;;;;;;355587;150;857606;-57
2022/05/31 01:48:38;;;;;;;;;;;;;;;;;;355683;150;856419;-57
2022/05/31 01:49:40;;;;;;;;;;;;;;;;;;353748;150;855725;-58
2022/05/31 01:50:41;;;;;;;;;;;;;;;;;;352196;152;856438;-57
2022/05/31 01:51:42;;;;;;;;;;;;;;;;;;354040;150;855868;-57
2022/05/31 01:52:44;;;;;;;;;;;;;;;;;;351955;150;857688;-57
2022/05/31 01:53:45;;;;;;;;;;;;;;;;;;351621;150;855842;-56
2022/05/31 01:54:46;;;;;;;;;;;;;;;;;;354587;150;856136;-57
2022/05/31 01:55:48;;;;;;;;;;;;;;;;;;347853;153;855853;-58
2022/05/31 01:56:50;;;;;;;;;;;;;;;;;;349835;153;856436;-59
2022/05/31 01:57:51;;;;;;;;;;;;;;;;;;352888;150;855858;-57
2022/05/31 01:58:52;;;;;;;;;;;;;;;;;;353409;150;855868;-57
2022/05/31 01:59:53;;;;;;;;;;;;;;;;;;353628;150;855298;-58
2022/05/31 02:00:55;;;;;;;;;;;;;;;;;;353919;150;855831;-57
2022/05/31 02:01:56;;;;;;;;;;;;;;;;;;353790;150;855876;-58
2022/05/31 02:02:57;;;;;;;;;;;;;;;;;;353031;152;855869;-57
2022/05/31 02:03:59;;;;;;;;;;;;;;;;;;355462;150;857114;-57
2022/05/31 02:05:00;;;;;;;;;;;;;;;;;;352784;151;855778;-57
2022/05/31 02:06:01;;;;;;;;;;;;;;;;;;355219;150;858178;-57
2022/05/31 02:07:12;;;;;;;;;;;;;;;;;;357857;150;856064;-57
2022/05/31 02:08:13;;;;;;;;;;;;;;;;;;349251;153;856102;-57
2022/05/31 02:09:15;;;;;;;;;;;;;;;;;;346622;152;858627;-60
2022/05/31 02:10:16;;;;;;;;;;;;;;;;;;348068;154;855949;-57
2022/05/31 02:11:17;;;;;;;;;;;;;;;;;;354507;151;857617;-58
2022/05/31 02:12:19;;;;;;;;;;;;;;;;;;356473;150;855895;-59
2022/05/31 02:13:20;;;;;;;;;;;;;;;;;;352535;150;855978;-58
2022/05/31 02:14:21;;;;;;;;;;;;;;;;;;354325;150;856316;-58
2022/05/31 02:15:23;;;;;;;;;;;;;;;;;;344503;153;855915;-57
2022/05/31 02:16:24;;;;;;;;;;;;;;;;;;356411;149;857410;-56
2022/05/31 02:17:25;;;;;;;;;;;;;;;;;;355289;149;855902;-59
2022/05/31 02:19:15;;;;;;;;;;;;;;;;;;349414;153;855010;-57
2022/05/31 02:19:30;;;;;;;;;;;;;;;;;;347611;151;855791;-58
2022/05/31 02:20:32;;;;;;;;;;;;;;;;;;360437;147;855768;-57
2022/05/31 02:21:36;;;;;;;;;;;;;;;;;;361143;148;854923;-55
2022/05/31 02:22:37;;;;;;;;;;;;;;;;;;360969;147;855229;-57
2022/05/31 02:23:39;;;;;;;;;;;;;;;;;;360382;148;855047;-57
2022/05/31 02:24:40;;;;;;;;;;;;;;;;;;351487;150;855056;-58
2022/05/31 02:25:42;;;;;;;;;;;;;;;;;;346900;153;855009;-58
2022/05/31 02:26:43;;;;;;;;;;;;;;;;;;359990;147;854990;-57
2022/05/31 02:27:45;;;;;;;;;;;;;;;;;;358858;147;855653;-58
2022/05/31 02:28:46;;;;;;;;;;;;;;;;;;360206;148;854915;-58
2022/05/31 02:29:47;;;;;;;;;;;;;;;;;;361177;147;855806;-58
2022/05/31 02:30:48;;;;;;;;;;;;;;;;;;361213;147;854985;-58
2022/05/31 02:31:50;;;;;;;;;;;;;;;;;;360586;148;855870;-58
2022/05/31 02:32:51;;;;;;;;;;;;;;;;;;359425;148;854946;-57
2022/05/31 02:33:52;;;;;;;;;;;;;;;;;;361640;147;854891;-57
2022/05/31 02:34:55;;;;;;;;;;;;;;;;;;363402;147;855850;-57
2022/05/31 02:35:56;;;;;;;;;;;;;;;;;;362062;147;855911;-56
2022/05/31 02:36:57;;;;;;;;;;;;;;;;;;358477;148;855728;-57
2022/05/31 02:37:59;;;;;;;;;;;;;;;;;;354223;151;855899;-56
2022/05/31 02:39:00;;;;;;;;;;;;;;;;;;354463;150;855779;-56
2022/05/31 02:40:02;;;;;;;;;;;;;;;;;;361213;146;855820;-57
2022/05/31 02:41:03;;;;;;;;;;;;;;;;;;354605;150;855822;-56
2022/05/31 02:42:05;;;;;;;;;;;;;;;;;;358531;148;855827;-56
2022/05/31 02:43:07;;;;;;;;;;;;;;;;;;358786;147;855911;-57
2022/05/31 02:44:09;;;;;;;;;;;;;;;;;;361323;147;855845;-57
2022/05/31 02:45:10;;;;;;;;;;;;;;;;;;361430;147;857222;-55
2022/05/31 02:46:12;;;;;;;;;;;;;;;;;;359533;142;856278;-57
2022/05/31 02:47:13;;;;;;;;;;;;;;;;;;353297;149;855766;-55
2022/05/31 02:48:14;;;;;;;;;;;;;;;;;;352522;152;856700;-55
2022/05/31 02:49:16;;;;;;;;;;;;;;;;;;355768;149;856397;-57
2022/05/31 02:50:18;;;;;;;;;;;;;;;;;;354565;149;857648;-55
2022/05/31 02:51:20;;;;;;;;;;;;;;;;;;355418;149;855881;-57
2022/05/31 02:52:22;;;;;;;;;;;;;;;;;;352989;149;856472;-56
2022/05/31 02:53:23;;;;;;;;;;;;;;;;;;356548;150;856032;-56
2022/05/31 02:54:24;;;;;;;;;;;;;;;;;;354151;149;855269;-56
2022/05/31 02:55:26;;;;;;;;;;;;;;;;;;353740;150;857568;-57
2022/05/31 02:56:27;;;;;;;;;;;;;;;;;;355939;150;855717;-56
2022/05/31 02:57:29;;;;;;;;;;;;;;;;;;359027;149;855876;-57
2022/05/31 02:58:30;;;;;;;;;;;;;;;;;;354446;150;855859;-56
2022/05/31 02:59:31;;;;;;;;;;;;;;;;;;350943;150;855782;-56
2022/05/31 03:00:33;;;;;;;;;;;;;;;;;;353376;150;858128;-57
2022/05/31 03:01:34;;;;;;;;;;;;;;;;;;352767;152;855848;-55
2022/05/31 03:02:35;;;;;;;;;;;;;;;;;;353737;152;855764;-55
2022/05/31 03:03:37;;;;;;;;;;;;;;;;;;353914;150;857653;-57
2022/05/31 03:04:39;;;;;;;;;;;;;;;;;;352007;151;855865;-56
2022/05/31 03:05:40;;;;;;;;;;;;;;;;;;354295;151;855956;-58
2022/05/31 03:06:42;;;;;;;;;;;;;;;;;;349645;152;856030;-57
2022/05/31 03:07:44;;;;;;;;;;;;;;;;;;354556;150;857607;-58
2022/05/31 03:08:45;;;;;;;;;;;;;;;;;;347808;152;856144;-57
2022/05/31 03:09:47;;;;;;;;;;;;;;;;;;356298;149;855934;-57
2022/05/31 03:10:48;;;;;;;;;;;;;;;;;;357021;149;857541;-56
2022/05/31 03:11:50;;;;;;;;;;;;;;;;;;354446;149;857164;-55
2022/05/31 03:12:51;;;;;;;;;;;;;;;;;;354397;149;855006;-57
2022/05/31 03:13:52;;;;;;;;;;;;;;;;;;351771;151;856102;-55
2022/05/31 03:14:54;;;;;;;;;;;;;;;;;;353109;150;856200;-57
2022/05/31 03:15:55;;;;;;;;;;;;;;;;;;352275;152;855770;-56
2022/05/31 03:16:57;;;;;;;;;;;;;;;;;;347990;154;857521;-57
2022/05/31 03:17:58;;;;;;;;;;;;;;;;;;347618;152;855859;-56
2022/05/31 03:19:02;;;;;;;;;;;;;;;;;;353254;150;855830;-57
2022/05/31 03:20:03;;;;;;;;;;;;;;;;;;353986;149;856379;-57
2022/05/31 03:21:04;;;;;;;;;;;;;;;;;;354823;149;856432;-57
2022/05/31 03:22:06;;;;;;;;;;;;;;;;;;356956;149;855763;-57
2022/05/31 03:23:07;;;;;;;;;;;;;;;;;;355838;149;858582;-57
2022/05/31 03:24:08;;;;;;;;;;;;;;;;;;354470;150;855815;-57
2022/05/31 03:25:10;;;;;;;;;;;;;;;;;;352995;150;856441;-57
2022/05/31 03:26:11;;;;;;;;;;;;;;;;;;354385;149;855911;-55
2022/05/31 03:27:12;;;;;;;;;;;;;;;;;;354941;152;857568;-57
2022/05/31 03:28:13;;;;;;;;;;;;;;;;;;353727;151;855817;-56
2022/05/31 03:29:15;;;;;;;;;;;;;;;;;;354822;152;856920;-57
2022/05/31 03:30:16;;;;;;;;;;;;;;;;;;353653;149;856014;-56
2022/05/31 03:31:17;;;;;;;;;;;;;;;;;;355606;149;857389;-57
2022/05/31 03:32:19;;;;;;;;;;;;;;;;;;352696;150;856052;-57
2022/05/31 03:33:20;;;;;;;;;;;;;;;;;;352850;150;857763;-57
2022/05/31 03:34:21;;;;;;;;;;;;;;;;;;352849;150;856295;-58
2022/05/31 03:35:23;;;;;;;;;;;;;;;;;;353266;152;856322;-56
2022/05/31 03:36:24;;;;;;;;;;;;;;;;;;351720;151;855184;-59
2022/05/31 03:37:26;;;;;;;;;;;;;;;;;;352975;152;856688;-59
2022/05/31 03:38:27;;;;;;;;;;;;;;;;;;353384;149;855793;-57
2022/05/31 03:39:28;;;;;;;;;;;;;;;;;;354967;149;855951;-55
2022/05/31 03:41:50;;;;;;;;;;;;;;;;;;354645;149;854972;-58
2022/05/31 03:42:51;;;;;;;;;;;;;;;;;;358483;149;855848;-58
2022/05/31 03:43:53;;;;;;;;;;;;;;;;;;356243;149;855092;-58
2022/05/31 03:44:54;;;;;;;;;;;;;;;;;;354513;150;854897;-57
2022/05/31 03:45:55;;;;;;;;;;;;;;;;;;353181;149;854882;-59
2022/05/31 03:46:57;;;;;;;;;;;;;;;;;;351668;151;856304;-60
2022/05/31 03:47:58;;;;;;;;;;;;;;;;;;349776;151;854981;-60
2022/05/31 03:48:59;;;;;;;;;;;;;;;;;;353397;150;854982;-60
2022/05/31 03:50:01;;;;;;;;;;;;;;;;;;351817;153;855480;-61
2022/05/31 03:51:02;;;;;;;;;;;;;;;;;;349869;153;854895;-61
2022/05/31 03:52:03;;;;;;;;;;;;;;;;;;349649;151;854985;-60
2022/05/31 03:53:05;;;;;;;;;;;;;;;;;;352253;150;855073;-58
2022/05/31 03:54:06;;;;;;;;;;;;;;;;;;351948;150;855090;-59
2022/05/31 03:55:07;;;;;;;;;;;;;;;;;;349608;150;855038;-59
2022/05/31 03:56:08;;;;;;;;;;;;;;;;;;348430;153;855049;-59
2022/05/31 03:57:10;;;;;;;;;;;;;;;;;;351930;151;855885;-59
2022/05/31 03:58:11;;;;;;;;;;;;;;;;;;352467;151;854985;-59
2022/05/31 03:59:12;;;;;;;;;;;;;;;;;;351586;152;854904;-59
2022/05/31 04:00:14;;;;;;;;;;;;;;;;;;352445;150;854906;-59
2022/05/31 04:01:15;;;;;;;;;;;;;;;;;;350942;153;855149;-59
2022/05/31 04:02:17;;;;;;;;;;;;;;;;;;351129;153;855055;-60
2022/05/31 04:03:18;;;;;;;;;;;;;;;;;;353281;153;855066;-59
2022/05/31 04:04:20;;;;;;;;;;;;;;;;;;350566;151;855135;-59
2022/05/31 04:05:21;;;;;;;;;;;;;;;;;;349976;150;855622;-59
2022/05/31 04:06:22;;;;;;;;;;;;;;;;;;350193;150;855011;-59
2022/05/31 04:07:24;;;;;;;;;;;;;;;;;;352251;151;855038;-59
2022/05/31 04:08:25;;;;;;;;;;;;;;;;;;350515;150;856118;-59
2022/05/31 04:09:27;;;;;;;;;;;;;;;;;;353082;150;855308;-59
2022/05/31 04:10:28;;;;;;;;;;;;;;;;;;350761;150;854914;-59
2022/05/31 04:11:29;;;;;;;;;;;;;;;;;;347902;153;854942;-59
2022/05/31 04:12:31;;;;;;;;;;;;;;;;;;352359;151;854885;-59
2022/05/31 04:13:32;;;;;;;;;;;;;;;;;;352437;151;855000;-59
2022/05/31 04:14:33;;;;;;;;;;;;;;;;;;350311;151;855504;-59
2022/05/31 04:15:35;;;;;;;;;;;;;;;;;;352690;151;855336;-59
2022/05/31 04:16:36;;;;;;;;;;;;;;;;;;353426;150;855710;-57
2022/05/31 04:17:38;;;;;;;;;;;;;;;;;;351640;151;856827;-57
2022/05/31 04:18:39;;;;;;;;;;;;;;;;;;353115;151;855831;-60
2022/05/31 04:19:40;;;;;;;;;;;;;;;;;;353669;150;857913;-58
2022/05/31 04:20:42;;;;;;;;;;;;;;;;;;352429;152;855892;-59
2022/05/31 04:21:43;;;;;;;;;;;;;;;;;;347927;153;855789;-60
2022/05/31 04:22:44;;;;;;;;;;;;;;;;;;345705;154;855195;-59
2022/05/31 04:23:58;;;;;;;;;;;;;;;;;;345426;155;855850;-58
2022/05/31 04:25:01;;;;;;;;;;;;;;;;;;344010;156;855818;-61
2022/05/31 04:26:02;;;;;;;;;;;;;;;;;;346997;154;855821;-58
2022/05/31 04:27:04;;;;;;;;;;;;;;;;;;347805;154;855781;-58
2022/05/31 04:28:05;;;;;;;;;;;;;;;;;;346993;154;855738;-57
2022/05/31 04:29:06;;;;;;;;;;;;;;;;;;343470;154;857621;-57
2022/05/31 04:30:08;;;;;;;;;;;;;;;;;;352204;150;855918;-57
2022/05/31 04:31:10;;;;;;;;;;;;;;;;;;351317;151;857130;-58
2022/05/31 04:32:11;;;;;;;;;;;;;;;;;;351394;152;855867;-58
2022/05/31 04:33:12;;;;;;;;;;;;;;;;;;351083;153;857532;-59
2022/05/31 04:34:13;;;;;;;;;;;;;;;;;;350355;151;856284;-58
2022/05/31 04:35:15;;;;;;;;;;;;;;;;;;351045;151;855731;-59
2022/05/31 04:36:16;;;;;;;;;;;;;;;;;;351968;150;856123;-59
2022/05/31 04:37:18;;;;;;;;;;;;;;;;;;352386;150;855934;-58
2022/05/31 04:38:19;;;;;;;;;;;;;;;;;;350148;150;857670;-59
2022/05/31 04:39:20;;;;;;;;;;;;;;;;;;348358;153;856000;-59
2022/05/31 04:40:22;;;;;;;;;;;;;;;;;;347974;154;855067;-58
2022/05/31 04:41:25;;;;;;;;;;;;;;;;;;347149;153;855184;-59
2022/05/31 04:42:26;;;;;;;;;;;;;;;;;;351638;151;855875;-60
2022/05/31 04:43:28;;;;;;;;;;;;;;;;;;344178;152;856239;-59
2022/05/31 04:44:29;;;;;;;;;;;;;;;;;;345210;156;855725;-59
2022/05/31 04:45:30;;;;;;;;;;;;;;;;;;343803;152;855889;-58
2022/05/31 04:46:32;;;;;;;;;;;;;;;;;;346335;152;857115;-58
2022/05/31 04:47:34;;;;;;;;;;;;;;;;;;345300;153;855981;-59
2022/05/31 04:48:35;;;;;;;;;;;;;;;;;;352224;152;856730;-60
2022/05/31 04:49:36;;;;;;;;;;;;;;;;;;351506;152;855805;-59
2022/05/31 04:50:38;;;;;;;;;;;;;;;;;;358600;148;855873;-59
2022/05/31 04:51:40;;;;;;;;;;;;;;;;;;359221;148;856075;-58
2022/05/31 04:52:41;;;;;;;;;;;;;;;;;;358152;148;857629;-60
2022/05/31 04:55:04;;;;;;;;;;;;;;;;;;348608;153;855835;-58
2022/05/31 04:56:05;;;;;;;;;;;;;;;;;;347836;154;855817;-60
2022/05/31 04:57:06;;;;;;;;;;;;;;;;;;349112;154;855883;-56
2022/05/31 04:58:08;;;;;;;;;;;;;;;;;;349713;154;858062;-58
2022/05/31 04:59:09;;;;;;;;;;;;;;;;;;346685;154;855862;-60
2022/05/31 05:00:12;;;;;;;;;;;;;;;;;;348292;151;856472;-58
2022/05/31 05:01:14;;;;;;;;;;;;;;;;;;347319;154;855826;-61
2022/05/31 05:02:15;;;;;;;;;;;;;;;;;;349286;152;855922;-59
2022/05/31 05:03:16;;;;;;;;;;;;;;;;;;349358;151;858137;-59
2022/05/31 05:04:18;;;;;;;;;;;;;;;;;;343771;154;855910;-58
2022/05/31 05:05:19;;;;;;;;;;;;;;;;;;344515;154;855931;-59
2022/05/31 05:06:21;;;;;;;;;;;;;;;;;;348664;153;855918;-59
2022/05/31 05:07:22;;;;;;;;;;;;;;;;;;348861;154;856059;-59
2022/05/31 05:08:23;;;;;;;;;;;;;;;;;;347185;154;857627;-59
2022/05/31 05:09:25;;;;;;;;;;;;;;;;;;345873;154;856224;-59
2022/05/31 05:10:26;;;;;;;;;;;;;;;;;;347383;154;855760;-58
2022/05/31 05:11:27;;;;;;;;;;;;;;;;;;346225;154;857424;-59
2022/05/31 05:12:28;;;;;;;;;;;;;;;;;;349821;151;855807;-60
2022/05/31 05:13:30;;;;;;;;;;;;;;;;;;351653;150;856709;-60
2022/05/31 05:14:31;;;;;;;;;;;;;;;;;;350668;153;855708;-59
2022/05/31 05:15:32;;;;;;;;;;;;;;;;;;352615;153;855868;-60
2022/05/31 05:16:34;;;;;;;;;;;;;;;;;;350858;153;856706;-59
2022/05/31 05:17:35;;;;;;;;;;;;;;;;;;350682;153;855918;-61
2022/05/31 05:18:36;;;;;;;;;;;;;;;;;;351606;153;855004;-60
2022/05/31 05:19:38;;;;;;;;;;;;;;;;;;343366;153;855758;-61
2022/05/31 05:20:39;;;;;;;;;;;;;;;;;;340057;156;855306;-60
2022/05/31 05:21:40;;;;;;;;;;;;;;;;;;338358;158;855863;-59
2022/05/31 05:22:42;;;;;;;;;;;;;;;;;;338674;158;855869;-60
2022/05/31 05:23:43;;;;;;;;;;;;;;;;;;338453;158;855099;-60
2022/05/31 05:24:44;;;;;;;;;;;;;;;;;;340777;158;855149;-60
2022/05/31 05:25:45;;;;;;;;;;;;;;;;;;341494;158;855697;-60
2022/05/31 05:26:47;;;;;;;;;;;;;;;;;;340189;158;854982;-62
2022/05/31 05:27:48;;;;;;;;;;;;;;;;;;338218;158;855808;-59
2022/05/31 05:31:33;;;;;;;;;;;;;;;;;;338442;158;857542;-60
2022/05/31 05:32:34;;;;;;;;;;;;;;;;;;339851;158;855805;-60
2022/05/31 05:33:36;;;;;;;;;;;;;;;;;;338883;158;857552;-60
2022/05/31 05:34:37;;;;;;;;;;;;;;;;;;340254;158;855819;-61
2022/05/31 05:35:38;;;;;;;;;;;;;;;;;;339593;158;856240;-61
2022/05/31 05:36:40;;;;;;;;;;;;;;;;;;339288;158;855916;-61
2022/05/31 05:37:41;;;;;;;;;;;;;;;;;;341711;158;855883;-60
2022/05/31 05:38:42;;;;;;;;;;;;;;;;;;340075;158;855635;-60
2022/05/31 05:39:45;;;;;;;;;;;;;;;;;;339146;158;855065;-59
2022/05/31 05:40:46;;;;;;;;;;;;;;;;;;338247;156;855990;-62
2022/05/31 05:41:49;;;;;;;;;;;;;;;;;;341887;158;857570;-62
2022/05/31 05:42:51;;;;;;;;;;;;;;;;;;339695;158;855922;-62
2022/05/31 05:43:52;;;;;;;;;;;;;;;;;;340592;158;855861;-62
2022/05/31 05:44:53;;;;;;;;;;;;;;;;;;338669;158;855831;-62
2022/05/31 05:45:55;;;;;;;;;;;;;;;;;;338721;158;855532;-62
2022/05/31 05:46:56;;;;;;;;;;;;;;;;;;338317;158;856356;-62
2022/05/31 05:47:57;;;;;;;;;;;;;;;;;;341594;158;857586;-62
2022/05/31 05:48:59;;;;;;;;;;;;;;;;;;341486;158;855856;-62
2022/05/31 05:50:00;;;;;;;;;;;;;;;;;;340046;158;855706;-62
2022/05/31 05:51:01;;;;;;;;;;;;;;;;;;338154;158;855731;-61
2022/05/31 05:52:05;;;;;;;;;;;;;;;;;;340514;158;855845;-61
2022/05/31 05:53:06;;;;;;;;;;;;;;;;;;342328;158;855859;-60
2022/05/31 05:54:08;;;;;;;;;;;;;;;;;;339623;158;855898;-61
2022/05/31 05:55:09;;;;;;;;;;;;;;;;;;338397;158;855983;-61
2022/05/31 05:56:11;;;;;;;;;;;;;;;;;;337652;160;855905;-60
2022/05/31 05:57:13;;;;;;;;;;;;;;;;;;337276;160;855667;-60
2022/05/31 05:58:14;;;;;;;;;;;;;;;;;;337035;160;857247;-60
2022/05/31 05:59:15;;;;;;;;;;;;;;;;;;334129;160;856024;-60
2022/05/31 06:00:17;;;;;;;;;;;;;;;;;;335962;160;857704;-60
2022/05/31 06:01:18;;;;;;;;;;;;;;;;;;335125;160;855910;-60
2022/05/31 06:02:19;;;;;;;;;;;;;;;;;;332379;160;856001;-60
2022/05/31 06:03:21;;;;;;;;;;;;;;;;;;337296;160;855735;-60
2022/05/31 06:04:22;;;;;;;;;;;;;;;;;;337370;160;855168;-61
2022/05/31 06:05:24;;;;;;;;;;;;;;;;;;334319;160;855876;-61
2022/05/31 06:06:25;;;;;;;;;;;;;;;;;;338777;147;854650;-60
2022/05/31 06:07:26;;;;;;;;;;;;;;;;;;342661;156;855773;-61
2022/05/31 06:08:28;;;;;;;;;;;;;;;;;;345192;155;856692;-60
2022/05/31 06:09:29;;;;;;;;;;;;;;;;;;342274;155;855707;-61
2022/05/31 06:10:30;;;;;;;;;;;;;;;;;;342769;155;857561;-61
2022/05/31 06:11:32;;;;;;;;;;;;;;;;;;344767;156;855805;-60
2022/05/31 06:12:33;;;;;;;;;;;;;;;;;;340290;156;855889;-60
2022/05/31 06:13:34;;;;;;;;;;;;;;;;;;338208;156;856101;-60
2022/05/31 06:14:35;;;;;;;;;;;;;;;;;;339214;156;855828;-61
2022/05/31 06:15:37;;;;;;;;;;;;;;;;;;340061;156;856627;-60
2022/05/31 06:16:38;;;;;;;;;;;;;;;;;;339169;158;855797;-60
2022/05/31 06:17:39;;;;;;;;;;;;;;;;;;339173;156;857527;-60
2022/05/31 06:18:41;;;;;;;;;;;;;;;;;;339778;158;857814;-61
2022/05/31 06:19:42;;;;;;;;;;;;;;;;;;339176;158;856356;-60
2022/05/31 06:20:43;;;;;;;;;;;;;;;;;;337181;156;855956;-61
2022/05/31 06:21:46;;;;;;;;;;;;;;;;;;339258;158;856595;-61
2022/05/31 06:22:48;;;;;;;;;;;;;;;;;;339216;158;856008;-59
2022/05/31 06:23:49;;;;;;;;;;;;;;;;;;338481;158;855821;-60
2022/05/31 06:24:50;;;;;;;;;;;;;;;;;;339056;158;856020;-61
2022/05/31 06:25:51;;;;;;;;;;;;;;;;;;336889;156;855846;-61
2022/05/31 06:26:53;;;;;;;;;;;;;;;;;;338278;158;857629;-60
2022/05/31 06:27:54;;;;;;;;;;;;;;;;;;339340;156;856946;-60
2022/05/31 06:28:55;;;;;;;;;;;;;;;;;;338207;156;855907;-62
2022/05/31 06:29:57;;;;;;;;;;;;;;;;;;336023;156;856123;-60
2022/05/31 06:30:58;;;;;;;;;;;;;;;;;;340205;156;855740;-62
2022/05/31 06:31:59;;;;;;;;;;;;;;;;;;339154;156;857608;-60
2022/05/31 06:33:01;;;;;;;;;;;;;;;;;;337909;156;856655;-59
2022/05/31 06:34:02;;;;;;;;;;;;;;;;;;338673;156;855828;-60
2022/05/31 06:35:03;;;;;;;;;;;;;;;;;;338117;156;855990;-59
2022/05/31 06:36:07;;;;;;;;;;;;;;;;;;340614;156;855955;-58
2022/05/31 06:37:08;;;;;;;;;;;;;;;;;;338038;156;857474;-60
2022/05/31 06:38:09;;;;;;;;;;;;;;;;;;339316;156;855880;-59
2022/05/31 06:39:11;;;;;;;;;;;;;;;;;;339930;156;857160;-61
2022/05/31 06:40:15;;;;;;;;;;;;;;;;;;338732;156;855834;-61
2022/05/31 06:41:17;;;;;;;;;;;;;;;;;;338446;156;855992;-61
2022/05/31 06:42:18;;;;;;;;;;;;;;;;;;339638;157;855981;-59
2022/05/31 06:43:20;;;;;;;;;;;;;;;;;;341157;156;857682;-60
2022/05/31 06:44:21;;;;;;;;;;;;;;;;;;339028;158;855189;-60
2022/05/31 06:45:22;;;;;;;;;;;;;;;;;;338937;156;855518;-60
2022/05/31 06:46:24;;;;;;;;;;;;;;;;;;337530;156;855917;-58
2022/05/31 06:47:25;;;;;;;;;;;;;;;;;;337818;157;856015;-59
2022/05/31 06:48:27;;;;;;;;;;;;;;;;;;337399;157;856206;-59
2022/05/31 06:49:29;;;;;;;;;;;;;;;;;;338540;156;855737;-60
2022/05/31 06:50:31;;;;;;;;;;;;;;;;;;340492;156;857477;-58
2022/05/31 06:56:52;;;;;;;;;;;;;;;;;;339779;156;856688;-61
2022/05/31 06:57:54;;;;;;;;;;;;;;;;;;340522;157;855832;-61
2022/05/31 06:58:55;;;;;;;;;;;;;;;;;;339853;157;855309;-60
2022/05/31 06:59:57;;;;;;;;;;;;;;;;;;338696;157;855808;-61
2022/05/31 07:00:58;;;;;;;;;;;;;;;;;;337876;156;856292;-59
2022/05/31 07:02:05;;;;;;;;;;;;;;;;;;336388;156;855781;-60
2022/05/31 07:03:07;;;;;;;;;;;;;;;;;;339050;156;855967;-60
2022/05/31 07:04:08;;;;;;;;;;;;;;;;;;337965;156;855886;-60